sensor_id;sensor_type;location;lat;lon;timestamp;pressure;altitude;pressure_sealevel;temperature;humidity
52591;BME280;38483;42.620;25.394;2023-07-20T00:01:09;96724.00;;;26.83;47.47
52591;BME280;38483;42.620;25.394;2023-07-20T00:03:37;96722.44;;;26.74;47.20
52591;BME280;38483;42.620;25.394;2023-07-20T00:06:05;96705.50;;;26.67;47.26
52591;BME280;38483;42.620;25.394;2023-07-20T00:08:33;96708.63;;;26.79;47.11
52591;BME280;38483;42.620;25.394;2023-07-20T00:11:01;96704.72;;;26.89;47.02
52591;BME280;38483;42.620;25.394;2023-07-20T00:13:29;96691.38;;;26.75;46.99
52591;BME280;38483;42.620;25.394;2023-07-20T00:15:56;96662.41;;;26.80;46.77
52591;BME280;38483;42.620;25.394;2023-07-20T00:18:24;96679.50;;;26.85;46.70
52591;BME280;38483;42.620;25.394;2023-07-20T00:20:51;96679.03;;;26.96;46.79
52591;BME280;38483;42.620;25.394;2023-07-20T00:23:18;96648.88;;;26.89;46.41
52591;BME280;38483;42.620;25.394;2023-07-20T00:25:50;96672.88;;;26.96;46.70
52591;BME280;38483;42.620;25.394;2023-07-20T00:28:17;96650.72;;;26.89;46.90
52591;BME280;38483;42.620;25.394;2023-07-20T00:30:44;96646.28;;;26.81;46.74
52591;BME280;38483;42.620;25.394;2023-07-20T00:33:12;96646.19;;;27.12;46.18
52591;BME280;38483;42.620;25.394;2023-07-20T00:35:39;96630.66;;;27.15;45.74
52591;BME280;38483;42.620;25.394;2023-07-20T00:38:06;96624.91;;;27.26;45.90
52591;BME280;38483;42.620;25.394;2023-07-20T00:40:40;96630.16;;;27.49;45.20
52591;BME280;38483;42.620;25.394;2023-07-20T00:43:08;96609.31;;;27.53;44.51
52591;BME280;38483;42.620;25.394;2023-07-20T00:45:39;96617.00;;;27.62;44.40
52591;BME280;38483;42.620;25.394;2023-07-20T00:48:06;96606.53;;;27.75;44.24
52591;BME280;38483;42.620;25.394;2023-07-20T00:50:35;96560.72;;;27.80;44.16
52591;BME280;38483;42.620;25.394;2023-07-20T00:53:04;96553.41;;;28.03;43.83
52591;BME280;38483;42.620;25.394;2023-07-20T00:55:34;96523.03;;;27.97;43.41
52591;BME280;38483;42.620;25.394;2023-07-20T00:58:02;96548.78;;;28.11;44.00
52591;BME280;38483;42.620;25.394;2023-07-20T01:00:30;96552.22;;;28.27;44.59
52591;BME280;38483;42.620;25.394;2023-07-20T01:02:57;96527.41;;;28.26;44.29
52591;BME280;38483;42.620;25.394;2023-07-20T01:05:59;96503.84;;;28.30;45.08
52591;BME280;38483;42.620;25.394;2023-07-20T01:08:42;96534.25;;;28.35;46.93
52591;BME280;38483;42.620;25.394;2023-07-20T01:11:17;96524.09;;;28.24;47.54
52591;BME280;38483;42.620;25.394;2023-07-20T01:13:50;96519.94;;;28.15;47.46
52591;BME280;38483;42.620;25.394;2023-07-20T01:16:17;96513.09;;;28.06;48.38
52591;BME280;38483;42.620;25.394;2023-07-20T01:18:44;96469.69;;;27.91;48.47
52591;BME280;38483;42.620;25.394;2023-07-20T01:21:22;96487.72;;;28.10;48.42
52591;BME280;38483;42.620;25.394;2023-07-20T01:24:32;96493.56;;;27.78;48.92
52591;BME280;38483;42.620;25.394;2023-07-20T01:27:32;96492.28;;;27.74;48.98
52591;BME280;38483;42.620;25.394;2023-07-20T01:30:30;96497.34;;;27.69;49.42
52591;BME280;38483;42.620;25.394;2023-07-20T01:33:03;96502.03;;;27.67;49.23
52591;BME280;38483;42.620;25.394;2023-07-20T01:35:31;96490.72;;;27.44;49.95
52591;BME280;38483;42.620;25.394;2023-07-20T01:37:59;96500.28;;;27.74;49.28
52591;BME280;38483;42.620;25.394;2023-07-20T01:40:27;96497.97;;;27.71;49.50
52591;BME280;38483;42.620;25.394;2023-07-20T01:42:55;96501.16;;;27.81;48.98
52591;BME280;38483;42.620;25.394;2023-07-20T01:45:22;96510.59;;;27.83;49.51
52591;BME280;38483;42.620;25.394;2023-07-20T01:47:50;96498.72;;;27.65;49.12
52591;BME280;38483;42.620;25.394;2023-07-20T01:50:17;96489.97;;;27.50;49.58
52591;BME280;38483;42.620;25.394;2023-07-20T01:52:44;96477.25;;;27.30;50.93
52591;BME280;38483;42.620;25.394;2023-07-20T01:55:11;96479.28;;;27.28;50.89
52591;BME280;38483;42.620;25.394;2023-07-20T01:57:38;96497.81;;;27.22;52.33
52591;BME280;38483;42.620;25.394;2023-07-20T02:00:06;96503.47;;;27.19;52.29
52591;BME280;38483;42.620;25.394;2023-07-20T02:02:41;96492.72;;;27.06;53.47
52591;BME280;38483;42.620;25.394;2023-07-20T02:05:09;96499.75;;;26.84;53.82
52591;BME280;38483;42.620;25.394;2023-07-20T02:07:36;96498.72;;;26.56;54.58
52591;BME280;38483;42.620;25.394;2023-07-20T02:10:04;96502.84;;;26.44;54.49
52591;BME280;38483;42.620;25.394;2023-07-20T02:12:32;96486.56;;;26.24;54.73
52591;BME280;38483;42.620;25.394;2023-07-20T02:14:59;96511.38;;;26.17;54.98
52591;BME280;38483;42.620;25.394;2023-07-20T02:17:28;96513.66;;;26.20;55.04
52591;BME280;38483;42.620;25.394;2023-07-20T02:20:15;96508.66;;;26.25;55.42
52591;BME280;38483;42.620;25.394;2023-07-20T02:22:43;96504.63;;;26.29;54.82
52591;BME280;38483;42.620;25.394;2023-07-20T02:25:10;96512.44;;;26.08;55.49
52591;BME280;38483;42.620;25.394;2023-07-20T02:27:38;96511.13;;;26.26;54.81
52591;BME280;38483;42.620;25.394;2023-07-20T02:30:08;96512.03;;;26.19;54.64
52591;BME280;38483;42.620;25.394;2023-07-20T02:32:36;96513.44;;;26.29;54.61
52591;BME280;38483;42.620;25.394;2023-07-20T02:35:04;96490.94;;;26.17;54.86
52591;BME280;38483;42.620;25.394;2023-07-20T02:37:32;96513.34;;;26.37;54.88
52591;BME280;38483;42.620;25.394;2023-07-20T02:40:00;96495.28;;;26.33;54.84
52591;BME280;38483;42.620;25.394;2023-07-20T02:42:28;96514.75;;;26.48;54.84
52591;BME280;38483;42.620;25.394;2023-07-20T02:44:56;96522.13;;;26.38;55.46
52591;BME280;38483;42.620;25.394;2023-07-20T02:47:23;96514.81;;;25.95;56.95
52591;BME280;38483;42.620;25.394;2023-07-20T02:49:50;96525.88;;;25.83;57.12
52591;BME280;38483;42.620;25.394;2023-07-20T02:52:18;96509.56;;;25.41;58.69
52591;BME280;38483;42.620;25.394;2023-07-20T02:54:48;96521.66;;;25.36;59.37
52591;BME280;38483;42.620;25.394;2023-07-20T02:57:15;96523.78;;;25.48;59.24
52591;BME280;38483;42.620;25.394;2023-07-20T02:59:43;96511.91;;;24.97;60.21
52591;BME280;38483;42.620;25.394;2023-07-20T03:02:10;96496.47;;;25.01;60.35
52591;BME280;38483;42.620;25.394;2023-07-20T03:04:38;96524.88;;;25.23;60.18
52591;BME280;38483;42.620;25.394;2023-07-20T03:07:05;96532.56;;;25.49;59.69
52591;BME280;38483;42.620;25.394;2023-07-20T03:09:34;96550.66;;;25.68;58.87
52591;BME280;38483;42.620;25.394;2023-07-20T03:12:01;96540.13;;;25.82;58.52
52591;BME280;38483;42.620;25.394;2023-07-20T03:14:28;96546.38;;;25.90;58.29
52591;BME280;38483;42.620;25.394;2023-07-20T03:16:56;96554.03;;;25.84;58.01
52591;BME280;38483;42.620;25.394;2023-07-20T03:19:23;96546.50;;;25.73;58.54
52591;BME280;38483;42.620;25.394;2023-07-20T03:21:50;96551.31;;;25.93;57.65
52591;BME280;38483;42.620;25.394;2023-07-20T03:24:18;96540.31;;;25.81;58.49
52591;BME280;38483;42.620;25.394;2023-07-20T03:26:46;96552.63;;;25.74;58.51
52591;BME280;38483;42.620;25.394;2023-07-20T03:29:17;96562.56;;;25.80;58.39
52591;BME280;38483;42.620;25.394;2023-07-20T03:31:46;96553.56;;;25.81;58.85
52591;BME280;38483;42.620;25.394;2023-07-20T03:34:13;96551.06;;;25.88;58.67
52591;BME280;38483;42.620;25.394;2023-07-20T03:36:43;96546.84;;;25.93;58.96
52591;BME280;38483;42.620;25.394;2023-07-20T03:39:13;96556.69;;;25.84;59.16
52591;BME280;38483;42.620;25.394;2023-07-20T03:41:40;96532.69;;;25.55;58.87
52591;BME280;38483;42.620;25.394;2023-07-20T03:44:08;96554.72;;;25.17;60.70
52591;BME280;38483;42.620;25.394;2023-07-20T03:46:35;96532.84;;;25.15;60.67
52591;BME280;38483;42.620;25.394;2023-07-20T03:49:02;96545.47;;;25.13;60.70
52591;BME280;38483;42.620;25.394;2023-07-20T03:51:30;96565.56;;;25.38;60.12
52591;BME280;38483;42.620;25.394;2023-07-20T03:53:58;96554.25;;;25.14;60.99
52591;BME280;38483;42.620;25.394;2023-07-20T03:56:25;96564.91;;;24.97;60.90
52591;BME280;38483;42.620;25.394;2023-07-20T03:58:53;96562.63;;;25.25;59.93
52591;BME280;38483;42.620;25.394;2023-07-20T04:01:21;96514.38;;;24.99;60.01
52591;BME280;38483;42.620;25.394;2023-07-20T04:03:49;96565.31;;;25.56;58.25
52591;BME280;38483;42.620;25.394;2023-07-20T04:06:17;96555.78;;;25.47;58.93
52591;BME280;38483;42.620;25.394;2023-07-20T04:08:44;96567.50;;;25.83;57.99
52591;BME280;38483;42.620;25.394;2023-07-20T04:11:14;96566.81;;;26.12;57.09
52591;BME280;38483;42.620;25.394;2023-07-20T04:13:42;96564.13;;;26.57;55.84
52591;BME280;38483;42.620;25.394;2023-07-20T04:16:10;96572.88;;;26.80;54.78
52591;BME280;38483;42.620;25.394;2023-07-20T04:18:37;96569.22;;;27.10;54.23
52591;BME280;38483;42.620;25.394;2023-07-20T04:21:04;96591.59;;;27.60;53.23
52591;BME280;38483;42.620;25.394;2023-07-20T04:23:31;96594.75;;;28.20;51.31
52591;BME280;38483;42.620;25.394;2023-07-20T04:25:59;96574.78;;;28.31;50.73
52591;BME280;38483;42.620;25.394;2023-07-20T04:28:26;96593.09;;;28.40;50.38
52591;BME280;38483;42.620;25.394;2023-07-20T04:30:54;96585.75;;;28.63;49.64
52591;BME280;38483;42.620;25.394;2023-07-20T04:33:22;96582.47;;;28.89;49.09
52591;BME280;38483;42.620;25.394;2023-07-20T04:35:58;96573.09;;;28.72;49.23
52591;BME280;38483;42.620;25.394;2023-07-20T04:38:33;96576.06;;;28.83;48.67
52591;BME280;38483;42.620;25.394;2023-07-20T04:41:14;96578.06;;;29.09;49.31
52591;BME280;38483;42.620;25.394;2023-07-20T04:43:45;96572.88;;;29.29;48.54
52591;BME280;38483;42.620;25.394;2023-07-20T04:46:15;96557.19;;;29.47;47.37
52591;BME280;38483;42.620;25.394;2023-07-20T04:48:45;96555.50;;;29.46;47.84
52591;BME280;38483;42.620;25.394;2023-07-20T04:51:13;96568.22;;;29.44;47.56
52591;BME280;38483;42.620;25.394;2023-07-20T04:53:40;96577.28;;;29.49;47.22
52591;BME280;38483;42.620;25.394;2023-07-20T04:56:09;96567.84;;;29.47;47.72
52591;BME280;38483;42.620;25.394;2023-07-20T04:58:37;96583.44;;;29.50;47.66
52591;BME280;38483;42.620;25.394;2023-07-20T05:01:05;96586.00;;;29.24;48.27
52591;BME280;38483;42.620;25.394;2023-07-20T05:03:34;96572.16;;;29.48;49.00
52591;BME280;38483;42.620;25.394;2023-07-20T05:06:02;96570.34;;;29.61;48.15
52591;BME280;38483;42.620;25.394;2023-07-20T05:08:29;96573.84;;;29.62;48.80
52591;BME280;38483;42.620;25.394;2023-07-20T05:10:59;96583.81;;;29.81;47.56
52591;BME280;38483;42.620;25.394;2023-07-20T05:13:26;96577.44;;;29.82;47.13
52591;BME280;38483;42.620;25.394;2023-07-20T05:15:54;96574.75;;;29.82;47.31
52591;BME280;38483;42.620;25.394;2023-07-20T05:18:22;96578.72;;;29.99;48.37
52591;BME280;38483;42.620;25.394;2023-07-20T05:20:51;96579.56;;;30.19;46.82
52591;BME280;38483;42.620;25.394;2023-07-20T05:23:24;96568.91;;;30.13;47.81
52591;BME280;38483;42.620;25.394;2023-07-20T05:25:57;96550.00;;;30.14;46.86
52591;BME280;38483;42.620;25.394;2023-07-20T05:28:32;96578.22;;;30.56;46.76
52591;BME280;38483;42.620;25.394;2023-07-20T05:31:05;96574.53;;;30.37;45.36
52591;BME280;38483;42.620;25.394;2023-07-20T05:33:34;96548.59;;;30.44;46.32
52591;BME280;38483;42.620;25.394;2023-07-20T05:36:03;96582.13;;;30.80;46.09
52591;BME280;38483;42.620;25.394;2023-07-20T05:38:43;96571.44;;;30.93;44.68
52591;BME280;38483;42.620;25.394;2023-07-20T05:41:18;96584.00;;;30.86;44.19
52591;BME280;38483;42.620;25.394;2023-07-20T05:43:53;96550.25;;;30.59;44.45
52591;BME280;38483;42.620;25.394;2023-07-20T05:46:22;96554.53;;;30.79;44.36
52591;BME280;38483;42.620;25.394;2023-07-20T05:48:52;96562.81;;;30.91;42.81
52591;BME280;38483;42.620;25.394;2023-07-20T05:51:19;96553.72;;;30.98;43.33
52591;BME280;38483;42.620;25.394;2023-07-20T05:53:47;96562.97;;;31.09;42.42
52591;BME280;38483;42.620;25.394;2023-07-20T05:56:40;96564.81;;;31.15;42.87
52591;BME280;38483;42.620;25.394;2023-07-20T05:59:09;96539.66;;;31.29;42.03
52591;BME280;38483;42.620;25.394;2023-07-20T06:01:36;96549.03;;;31.58;42.54
52591;BME280;38483;42.620;25.394;2023-07-20T06:04:03;96537.72;;;31.56;41.98
52591;BME280;38483;42.620;25.394;2023-07-20T06:06:31;96494.97;;;31.29;41.81
52591;BME280;38483;42.620;25.394;2023-07-20T06:09:00;96514.06;;;31.53;40.86
52591;BME280;38483;42.620;25.394;2023-07-20T06:11:32;96547.56;;;31.68;41.38
52591;BME280;38483;42.620;25.394;2023-07-20T06:14:02;96535.69;;;31.89;40.98
52591;BME280;38483;42.620;25.394;2023-07-20T06:16:29;96530.72;;;31.92;41.23
52591;BME280;38483;42.620;25.394;2023-07-20T06:19:01;96540.97;;;32.08;39.78
52591;BME280;38483;42.620;25.394;2023-07-20T06:21:31;96521.22;;;32.03;40.92
52591;BME280;38483;42.620;25.394;2023-07-20T06:23:58;96512.97;;;32.04;39.79
52591;BME280;38483;42.620;25.394;2023-07-20T06:26:26;96532.44;;;31.80;40.46
52591;BME280;38483;42.620;25.394;2023-07-20T06:28:54;96511.34;;;31.97;39.75
52591;BME280;38483;42.620;25.394;2023-07-20T06:31:21;96525.13;;;32.32;40.33
52591;BME280;38483;42.620;25.394;2023-07-20T06:33:48;96538.25;;;32.40;40.13
52591;BME280;38483;42.620;25.394;2023-07-20T06:36:17;96515.59;;;32.36;39.86
52591;BME280;38483;42.620;25.394;2023-07-20T06:38:45;96522.34;;;32.45;40.38
52591;BME280;38483;42.620;25.394;2023-07-20T06:41:17;96531.19;;;32.52;39.80
52591;BME280;38483;42.620;25.394;2023-07-20T06:43:48;96532.47;;;32.49;39.58
52591;BME280;38483;42.620;25.394;2023-07-20T06:46:16;96526.81;;;32.57;38.98
52591;BME280;38483;42.620;25.394;2023-07-20T06:48:46;96513.94;;;32.41;39.42
52591;BME280;38483;42.620;25.394;2023-07-20T06:51:16;96537.44;;;32.46;39.68
52591;BME280;38483;42.620;25.394;2023-07-20T06:53:44;96524.31;;;32.31;39.97
52591;BME280;38483;42.620;25.394;2023-07-20T06:56:12;96514.88;;;31.97;40.52
52591;BME280;38483;42.620;25.394;2023-07-20T06:58:42;96508.69;;;31.90;40.48
52591;BME280;38483;42.620;25.394;2023-07-20T07:01:10;96516.72;;;31.90;40.72
52591;BME280;38483;42.620;25.394;2023-07-20T07:03:39;96468.72;;;31.58;40.70
52591;BME280;38483;42.620;25.394;2023-07-20T07:06:07;96512.03;;;32.17;40.41
52591;BME280;38483;42.620;25.394;2023-07-20T07:08:40;96515.72;;;32.23;40.29
52591;BME280;38483;42.620;25.394;2023-07-20T07:11:09;96509.16;;;32.19;39.13
52591;BME280;38483;42.620;25.394;2023-07-20T07:13:36;96503.81;;;32.19;39.55
52591;BME280;38483;42.620;25.394;2023-07-20T07:16:04;96491.03;;;32.14;38.54
52591;BME280;38483;42.620;25.394;2023-07-20T07:18:36;96508.88;;;32.27;39.36
52591;BME280;38483;42.620;25.394;2023-07-20T07:21:04;96511.34;;;31.97;39.60
52591;BME280;38483;42.620;25.394;2023-07-20T07:23:31;96505.06;;;31.78;40.10
52591;BME280;38483;42.620;25.394;2023-07-20T07:25:59;96496.16;;;31.84;40.19
52591;BME280;38483;42.620;25.394;2023-07-20T07:28:28;96505.88;;;31.79;40.77
52591;BME280;38483;42.620;25.394;2023-07-20T07:30:56;96519.84;;;31.43;42.23
52591;BME280;38483;42.620;25.394;2023-07-20T07:33:26;96513.13;;;31.72;41.45
52591;BME280;38483;42.620;25.394;2023-07-20T07:35:54;96499.28;;;31.81;40.78
52591;BME280;38483;42.620;25.394;2023-07-20T07:38:25;96509.72;;;31.96;41.55
52591;BME280;38483;42.620;25.394;2023-07-20T07:40:58;96486.81;;;32.00;40.07
52591;BME280;38483;42.620;25.394;2023-07-20T07:43:26;96521.16;;;32.41;39.66
52591;BME280;38483;42.620;25.394;2023-07-20T07:45:54;96523.28;;;32.32;39.54
52591;BME280;38483;42.620;25.394;2023-07-20T07:48:22;96512.84;;;32.49;39.79
52591;BME280;38483;42.620;25.394;2023-07-20T07:50:54;96510.44;;;32.65;38.76
52591;BME280;38483;42.620;25.394;2023-07-20T07:53:22;96510.97;;;32.74;38.77
52591;BME280;38483;42.620;25.394;2023-07-20T07:55:55;96527.09;;;32.92;38.98
52591;BME280;38483;42.620;25.394;2023-07-20T07:58:23;96516.59;;;32.91;37.69
52591;BME280;38483;42.620;25.394;2023-07-20T08:00:52;96515.94;;;32.95;38.19
52591;BME280;38483;42.620;25.394;2023-07-20T08:03:24;96504.16;;;32.96;37.86
52591;BME280;38483;42.620;25.394;2023-07-20T08:05:54;96510.91;;;33.05;37.62
52591;BME280;38483;42.620;25.394;2023-07-20T08:08:27;96520.25;;;32.96;38.09
52591;BME280;38483;42.620;25.394;2023-07-20T08:10:55;96503.81;;;32.68;37.89
52591;BME280;38483;42.620;25.394;2023-07-20T08:13:22;96493.91;;;32.68;38.51
52591;BME280;38483;42.620;25.394;2023-07-20T08:15:52;96506.81;;;32.96;38.22
52591;BME280;38483;42.620;25.394;2023-07-20T08:18:24;96505.59;;;32.99;38.42
52591;BME280;38483;42.620;25.394;2023-07-20T08:20:56;96501.91;;;32.93;37.39
52591;BME280;38483;42.620;25.394;2023-07-20T08:23:27;96507.28;;;32.93;38.23
52591;BME280;38483;42.620;25.394;2023-07-20T08:25:55;96520.22;;;33.03;37.74
52591;BME280;38483;42.620;25.394;2023-07-20T08:28:22;96518.91;;;32.87;38.05
52591;BME280;38483;42.620;25.394;2023-07-20T08:30:49;96508.69;;;32.53;38.44
52591;BME280;38483;42.620;25.394;2023-07-20T08:33:18;96517.22;;;32.68;38.33
52591;BME280;38483;42.620;25.394;2023-07-20T08:35:46;96518.78;;;33.00;38.19
52591;BME280;38483;42.620;25.394;2023-07-20T08:38:16;96503.19;;;33.27;37.69
52591;BME280;38483;42.620;25.394;2023-07-20T08:40:46;96520.75;;;33.11;36.86
52591;BME280;38483;42.620;25.394;2023-07-20T08:43:17;96516.88;;;33.25;37.39
52591;BME280;38483;42.620;25.394;2023-07-20T08:45:46;96513.72;;;33.46;36.80
52591;BME280;38483;42.620;25.394;2023-07-20T08:48:16;96509.94;;;33.54;37.00
52591;BME280;38483;42.620;25.394;2023-07-20T08:50:49;96498.50;;;33.40;36.65
52591;BME280;38483;42.620;25.394;2023-07-20T08:53:17;96484.38;;;33.45;36.95
52591;BME280;38483;42.620;25.394;2023-07-20T08:55:45;96453.88;;;33.39;36.94
52591;BME280;38483;42.620;25.394;2023-07-20T08:58:16;96498.19;;;33.96;35.96
52591;BME280;38483;42.620;25.394;2023-07-20T09:00:44;96490.94;;;33.97;35.33
52591;BME280;38483;42.620;25.394;2023-07-20T09:03:14;96491.59;;;34.22;35.29
52591;BME280;38483;42.620;25.394;2023-07-20T09:05:44;96468.69;;;34.08;35.35
52591;BME280;38483;42.620;25.394;2023-07-20T09:08:11;96454.81;;;33.93;35.77
52591;BME280;38483;42.620;25.394;2023-07-20T09:10:38;96489.31;;;34.37;35.27
52591;BME280;38483;42.620;25.394;2023-07-20T09:13:06;96491.91;;;34.55;34.63
52591;BME280;38483;42.620;25.394;2023-07-20T09:15:36;96478.78;;;34.47;35.36
52591;BME280;38483;42.620;25.394;2023-07-20T09:18:06;96483.41;;;34.58;34.82
52591;BME280;38483;42.620;25.394;2023-07-20T09:20:36;96484.44;;;34.57;34.13
52591;BME280;38483;42.620;25.394;2023-07-20T09:23:04;96485.94;;;34.65;33.88
52591;BME280;38483;42.620;25.394;2023-07-20T09:25:36;96479.13;;;34.39;34.36
52591;BME280;38483;42.620;25.394;2023-07-20T09:28:06;96468.00;;;34.24;35.52
52591;BME280;38483;42.620;25.394;2023-07-20T09:30:34;96458.31;;;34.23;34.95
52591;BME280;38483;42.620;25.394;2023-07-20T09:33:02;96445.78;;;34.40;34.87
52591;BME280;38483;42.620;25.394;2023-07-20T09:35:30;96441.25;;;34.52;35.10
52591;BME280;38483;42.620;25.394;2023-07-20T09:38:17;96454.97;;;34.62;34.68
52591;BME280;38483;42.620;25.394;2023-07-20T09:40:48;96449.44;;;34.69;34.58
52591;BME280;38483;42.620;25.394;2023-07-20T09:43:22;96423.84;;;34.66;33.88
52591;BME280;38483;42.620;25.394;2023-07-20T09:46:04;96440.88;;;34.25;35.14
52591;BME280;38483;42.620;25.394;2023-07-20T09:48:35;96439.72;;;34.33;34.37
52591;BME280;38483;42.620;25.394;2023-07-20T09:51:27;96435.28;;;34.38;35.06
52591;BME280;38483;42.620;25.394;2023-07-20T09:54:05;96388.97;;;34.02;34.14
52591;BME280;38483;42.620;25.394;2023-07-20T09:56:33;96410.00;;;34.16;34.84
52591;BME280;38483;42.620;25.394;2023-07-20T09:59:04;96404.56;;;33.93;34.82
52591;BME280;38483;42.620;25.394;2023-07-20T10:01:34;96416.84;;;33.89;35.02
52591;BME280;38483;42.620;25.394;2023-07-20T10:04:08;96421.69;;;34.22;35.82
52591;BME280;38483;42.620;25.394;2023-07-20T10:06:42;96428.00;;;33.75;36.61
52591;BME280;38483;42.620;25.394;2023-07-20T10:09:14;96401.13;;;33.63;36.82
52591;BME280;38483;42.620;25.394;2023-07-20T10:11:50;96443.72;;;33.59;36.62
52591;BME280;38483;42.620;25.394;2023-07-20T10:14:41;96418.66;;;33.47;37.02
52591;BME280;38483;42.620;25.394;2023-07-20T10:17:14;96427.25;;;33.56;37.43
52591;BME280;38483;42.620;25.394;2023-07-20T10:19:47;96414.78;;;33.43;37.36
52591;BME280;38483;42.620;25.394;2023-07-20T10:22:26;96424.81;;;33.54;37.76
52591;BME280;38483;42.620;25.394;2023-07-20T10:24:55;96382.19;;;33.28;37.97
52591;BME280;38483;42.620;25.394;2023-07-20T10:27:29;96393.66;;;33.47;37.27
52591;BME280;38483;42.620;25.394;2023-07-20T10:29:58;96415.84;;;33.42;37.90
52591;BME280;38483;42.620;25.394;2023-07-20T10:32:27;96415.25;;;33.40;37.66
52591;BME280;38483;42.620;25.394;2023-07-20T10:34:56;96412.03;;;33.02;38.47
52591;BME280;38483;42.620;25.394;2023-07-20T10:37:50;96415.66;;;33.26;37.82
52591;BME280;38483;42.620;25.394;2023-07-20T10:43:03;96394.81;;;33.39;36.89
52591;BME280;38483;42.620;25.394;2023-07-20T10:45:52;96416.91;;;33.71;35.95
52591;BME280;38483;42.620;25.394;2023-07-20T10:48:22;96410.84;;;33.76;35.74
52591;BME280;38483;42.620;25.394;2023-07-20T10:54:54;96401.81;;;33.58;35.81
52591;BME280;38483;42.620;25.394;2023-07-20T10:56:57;96386.88;;;33.74;36.13
52591;BME280;38483;42.620;25.394;2023-07-20T11:01:56;96378.13;;;33.79;36.34
52591;BME280;38483;42.620;25.394;2023-07-20T11:04:46;96386.97;;;34.09;36.44
52591;BME280;38483;42.620;25.394;2023-07-20T11:07:36;96392.91;;;34.11;36.51
52591;BME280;38483;42.620;25.394;2023-07-20T11:10:14;96394.97;;;33.86;36.56
52591;BME280;38483;42.620;25.394;2023-07-20T11:13:23;96408.13;;;33.64;37.34
52591;BME280;38483;42.620;25.394;2023-07-20T11:18:25;96391.66;;;33.60;37.02
52591;BME280;38483;42.620;25.394;2023-07-20T11:20:56;96389.34;;;33.46;37.52
52591;BME280;38483;42.620;25.394;2023-07-20T11:23:24;96369.72;;;33.45;38.37
52591;BME280;38483;42.620;25.394;2023-07-20T11:26:05;96366.59;;;33.48;38.07
52591;BME280;38483;42.620;25.394;2023-07-20T11:28:35;96363.44;;;33.81;37.84
52591;BME280;38483;42.620;25.394;2023-07-20T11:31:05;96395.84;;;33.56;36.93
52591;BME280;38483;42.620;25.394;2023-07-20T11:33:42;96347.28;;;33.70;37.14
52591;BME280;38483;42.620;25.394;2023-07-20T11:36:10;96376.19;;;33.86;36.78
52591;BME280;38483;42.620;25.394;2023-07-20T11:38:41;96375.34;;;33.97;37.14
52591;BME280;38483;42.620;25.394;2023-07-20T11:41:12;96370.03;;;34.20;36.95
52591;BME280;38483;42.620;25.394;2023-07-20T11:43:42;96352.00;;;34.09;36.35
52591;BME280;38483;42.620;25.394;2023-07-20T11:46:12;96353.78;;;34.03;36.80
52591;BME280;38483;42.620;25.394;2023-07-20T11:48:42;96352.97;;;34.26;36.59
52591;BME280;38483;42.620;25.394;2023-07-20T11:51:16;96335.41;;;34.47;36.25
52591;BME280;38483;42.620;25.394;2023-07-20T11:53:44;96349.00;;;34.52;35.16
52591;BME280;38483;42.620;25.394;2023-07-20T11:56:13;96345.00;;;34.54;36.03
52591;BME280;38483;42.620;25.394;2023-07-20T11:58:44;96313.94;;;34.12;36.25
52591;BME280;38483;42.620;25.394;2023-07-20T12:01:13;96322.91;;;34.17;36.51
52591;BME280;38483;42.620;25.394;2023-07-20T12:03:43;96315.44;;;34.08;36.51
52591;BME280;38483;42.620;25.394;2023-07-20T12:06:13;96313.69;;;34.25;36.79
52591;BME280;38483;42.620;25.394;2023-07-20T12:08:47;96339.28;;;34.51;36.35
52591;BME280;38483;42.620;25.394;2023-07-20T12:11:39;96322.75;;;34.70;36.29
52591;BME280;38483;42.620;25.394;2023-07-20T12:14:09;96311.19;;;35.09;35.76
52591;BME280;38483;42.620;25.394;2023-07-20T12:16:43;96310.50;;;35.02;34.65
52591;BME280;38483;42.620;25.394;2023-07-20T12:19:12;96301.44;;;34.80;35.17
52591;BME280;38483;42.620;25.394;2023-07-20T12:21:41;96288.75;;;34.92;34.83
52591;BME280;38483;42.620;25.394;2023-07-20T12:24:10;96291.91;;;34.89;35.03
52591;BME280;38483;42.620;25.394;2023-07-20T12:26:38;96304.38;;;34.95;35.28
52591;BME280;38483;42.620;25.394;2023-07-20T12:29:05;96317.53;;;35.03;34.45
52591;BME280;38483;42.620;25.394;2023-07-20T12:31:36;96304.72;;;34.71;35.30
52591;BME280;38483;42.620;25.394;2023-07-20T12:34:03;96305.72;;;34.93;35.88
52591;BME280;38483;42.620;25.394;2023-07-20T12:36:31;96317.44;;;34.87;35.57
52591;BME280;38483;42.620;25.394;2023-07-20T12:38:59;96316.94;;;34.90;36.04
52591;BME280;38483;42.620;25.394;2023-07-20T12:41:29;96300.34;;;34.81;36.58
52591;BME280;38483;42.620;25.394;2023-07-20T12:43:57;96305.94;;;35.03;36.62
52591;BME280;38483;42.620;25.394;2023-07-20T12:46:25;96300.16;;;35.11;37.36
52591;BME280;38483;42.620;25.394;2023-07-20T12:48:53;96304.38;;;34.95;37.69
52591;BME280;38483;42.620;25.394;2023-07-20T12:51:22;96293.25;;;34.12;38.70
52591;BME280;38483;42.620;25.394;2023-07-20T12:53:51;96292.25;;;33.72;38.75
52591;BME280;38483;42.620;25.394;2023-07-20T12:56:19;96286.19;;;33.65;39.70
52591;BME280;38483;42.620;25.394;2023-07-20T12:58:53;96282.94;;;33.75;38.86
52591;BME280;38483;42.620;25.394;2023-07-20T13:01:20;96279.06;;;33.71;38.71
52591;BME280;38483;42.620;25.394;2023-07-20T13:03:48;96286.53;;;33.69;38.46
52591;BME280;38483;42.620;25.394;2023-07-20T13:06:18;96267.88;;;33.74;38.93
52591;BME280;38483;42.620;25.394;2023-07-20T13:09:02;96276.25;;;33.89;37.96
52591;BME280;38483;42.620;25.394;2023-07-20T13:11:44;96262.97;;;33.59;38.30
52591;BME280;38483;42.620;25.394;2023-07-20T13:14:12;96275.34;;;34.18;37.77
52591;BME280;38483;42.620;25.394;2023-07-20T13:16:41;96282.22;;;34.49;37.42
52591;BME280;38483;42.620;25.394;2023-07-20T13:19:15;96255.19;;;34.32;37.42